ANA8797 RJGG-RJGG
Flight info
| Callsign | ANA8797 |
|---|---|
| Flight time | 0h 12m |
| Altitude | 12000 |
| Route | KCC |
| Aircraft | B738/M-SDE2E3FGHIRWXY/LB1 |
Departure
| Time | 2026-04-29 14:04 |
|---|---|
| Airport | Chubu Centrair International Airport (RJGG) |
Arrival
| Time | 2026-04-29 14:16 |
|---|---|
| Airport | Chubu Centrair International Airport (RJGG) |
| Time | Latitude | Longitude | Altitude | Speed | Heading |
|---|---|---|---|---|---|
| 2026-04-29 13:36 | 34.86152 | 136.80994 | 27 ft | 0 kts | 348° |
| 2026-04-29 13:36 | 34.86160 | 136.80992 | 27 ft | 0 kts | 348° |
| 2026-04-29 13:49 | 34.86157 | 136.80993 | 27 ft | 3 kts | 348° |
| 2026-04-29 13:49 | 34.86138 | 136.80999 | 27 ft | 3 kts | 342° |
| 2026-04-29 13:50 | 34.86118 | 136.81007 | 27 ft | 3 kts | 334° |
| 2026-04-29 13:50 | 34.86096 | 136.81024 | 27 ft | 3 kts | 319° |
| 2026-04-29 13:50 | 34.86087 | 136.81033 | 27 ft | 1 kts | 313° |
| 2026-04-29 13:50 | 34.86085 | 136.81037 | 27 ft | 0 kts | 313° |
| 2026-04-29 13:55 | 34.86085 | 136.81036 | 27 ft | 0 kts | 311° |
| 2026-04-29 13:55 | 34.86083 | 136.81025 | 27 ft | 3 kts | 257° |
| 2026-04-29 13:55 | 34.86071 | 136.80985 | 27 ft | 6 kts | 249° |
| 2026-04-29 13:55 | 34.86061 | 136.80934 | 27 ft | 6 kts | 259° |
| 2026-04-29 13:56 | 34.86054 | 136.80884 | 27 ft | 6 kts | 258° |
| 2026-04-29 13:56 | 34.86045 | 136.80835 | 27 ft | 6 kts | 258° |
| 2026-04-29 13:56 | 34.86037 | 136.80786 | 27 ft | 6 kts | 259° |
| 2026-04-29 13:56 | 34.86012 | 136.80751 | 27 ft | 6 kts | 201° |
| 2026-04-29 13:57 | 34.85971 | 136.80750 | 27 ft | 7 kts | 171° |
| 2026-04-29 13:57 | 34.85901 | 136.80768 | 26 ft | 14 kts | 169° |
| 2026-04-29 13:57 | 34.85795 | 136.80793 | 26 ft | 18 kts | 169° |
| 2026-04-29 13:57 | 34.85670 | 136.80822 | 26 ft | 18 kts | 169° |
| 2026-04-29 13:58 | 34.85548 | 136.80853 | 26 ft | 18 kts | 169° |
| 2026-04-29 13:58 | 34.85430 | 136.80881 | 26 ft | 17 kts | 168° |
| 2026-04-29 13:58 | 34.85317 | 136.80908 | 27 ft | 16 kts | 169° |
| 2026-04-29 13:58 | 34.85208 | 136.80934 | 27 ft | 16 kts | 169° |
| 2026-04-29 13:59 | 34.85104 | 136.80958 | 27 ft | 15 kts | 168° |
| 2026-04-29 13:59 | 34.85004 | 136.80984 | 27 ft | 14 kts | 168° |
| 2026-04-29 13:59 | 34.84907 | 136.81006 | 27 ft | 14 kts | 169° |
| 2026-04-29 13:59 | 34.84815 | 136.81028 | 27 ft | 13 kts | 169° |
| 2026-04-29 14:00 | 34.84727 | 136.81049 | 27 ft | 13 kts | 169° |
| 2026-04-29 14:00 | 34.84641 | 136.81069 | 27 ft | 12 kts | 168° |
| 2026-04-29 14:00 | 34.84557 | 136.81090 | 27 ft | 12 kts | 169° |
| 2026-04-29 14:00 | 34.84478 | 136.81109 | 26 ft | 10 kts | 169° |
| 2026-04-29 14:01 | 34.84412 | 136.81125 | 26 ft | 9 kts | 169° |
| 2026-04-29 14:01 | 34.84370 | 136.81130 | 26 ft | 3 kts | 188° |
| 2026-04-29 14:01 | 34.84350 | 136.81116 | 26 ft | 3 kts | 220° |
| 2026-04-29 14:01 | 34.84337 | 136.81092 | 29 ft | 4 kts | 248° |
| 2026-04-29 14:02 | 34.84329 | 136.81046 | 27 ft | 8 kts | 260° |
| 2026-04-29 14:02 | 34.84318 | 136.80962 | 23 ft | 11 kts | 261° |
| 2026-04-29 14:02 | 34.84334 | 136.80906 | 25 ft | 6 kts | 315° |
| 2026-04-29 14:02 | 34.84375 | 136.80887 | 24 ft | 6 kts | 348° |
| 2026-04-29 14:03 | 34.84411 | 136.80879 | 27 ft | 10 kts | 349° |
| 2026-04-29 14:03 | 34.84686 | 136.80813 | 26 ft | 70 kts | 349° |
| 2026-04-29 14:03 | 34.85343 | 136.80653 | 25 ft | 120 kts | 348° |
| 2026-04-29 14:03 | 34.86276 | 136.80381 | 127 ft | 149 kts | 346° |
| 2026-04-29 14:04 | 34.87351 | 136.80156 | 474 ft | 166 kts | 350° |
| 2026-04-29 14:04 | 34.88576 | 136.79990 | 653 ft | 193 kts | 354° |
| 2026-04-29 14:04 | 34.89947 | 136.79942 | 1024 ft | 195 kts | 355° |
| 2026-04-29 14:04 | 34.91294 | 136.79752 | 983 ft | 197 kts | 349° |
| 2026-04-29 14:05 | 34.92529 | 136.79214 | 999 ft | 188 kts | 321° |
| 2026-04-29 14:05 | 34.93205 | 136.77913 | 1001 ft | 186 kts | 282° |
| 2026-04-29 14:05 | 34.93198 | 136.76313 | 1021 ft | 191 kts | 268° |
| 2026-04-29 14:05 | 34.93117 | 136.74722 | 1045 ft | 184 kts | 269° |
| 2026-04-29 14:06 | 34.92885 | 136.73176 | 1004 ft | 190 kts | 246° |
| 2026-04-29 14:06 | 34.91947 | 136.72055 | 1001 ft | 196 kts | 208° |
| 2026-04-29 14:06 | 34.90613 | 136.71882 | 992 ft | 194 kts | 169° |
| 2026-04-29 14:06 | 34.89344 | 136.72409 | 998 ft | 193 kts | 161° |
| 2026-04-29 14:07 | 34.88079 | 136.72957 | 1003 ft | 194 kts | 161° |
| 2026-04-29 14:07 | 34.86799 | 136.73506 | 1005 ft | 194 kts | 162° |
| 2026-04-29 14:07 | 34.85526 | 136.74055 | 996 ft | 194 kts | 164° |
| 2026-04-29 14:07 | 34.84255 | 136.74524 | 988 ft | 182 kts | 166° |
| 2026-04-29 14:08 | 34.83066 | 136.74933 | 989 ft | 178 kts | 166° |
| 2026-04-29 14:08 | 34.81912 | 136.75330 | 972 ft | 166 kts | 164° |
| 2026-04-29 14:08 | 34.80913 | 136.76015 | 751 ft | 166 kts | 135° |
| 2026-04-29 14:08 | 34.80339 | 136.77195 | 613 ft | 161 kts | 97° |
| 2026-04-29 14:09 | 34.80483 | 136.78465 | 536 ft | 154 kts | 57° |
| 2026-04-29 14:09 | 34.80972 | 136.79623 | 508 ft | 153 kts | 56° |
| 2026-04-29 14:09 | 34.81519 | 136.80771 | 398 ft | 155 kts | 45° |
| 2026-04-29 14:09 | 34.82384 | 136.81391 | 323 ft | 143 kts | 360° |
| 2026-04-29 14:10 | 34.83342 | 136.81144 | 211 ft | 141 kts | 343° |
| 2026-04-29 14:10 | 34.84276 | 136.80912 | 63 ft | 132 kts | 346° |
| 2026-04-29 14:10 | 34.85128 | 136.80703 | 27 ft | 115 kts | 349° |
| 2026-04-29 14:10 | 34.85797 | 136.80545 | 27 ft | 70 kts | 349° |
| 2026-04-29 14:11 | 34.86231 | 136.80439 | 28 ft | 76 kts | 348° |
| 2026-04-29 14:11 | 34.87119 | 136.80227 | 289 ft | 162 kts | 347° |
| 2026-04-29 14:11 | 34.88196 | 136.79955 | 950 ft | 155 kts | 345° |
| 2026-04-29 14:11 | 34.89181 | 136.79455 | 1041 ft | 160 kts | 320° |
| 2026-04-29 14:12 | 34.89801 | 136.78319 | 1062 ft | 170 kts | 286° |
| 2026-04-29 14:12 | 34.89758 | 136.76870 | 1061 ft | 174 kts | 255° |
| 2026-04-29 14:12 | 34.89072 | 136.75647 | 1004 ft | 179 kts | 224° |
| 2026-04-29 14:12 | 34.87926 | 136.74992 | 1040 ft | 186 kts | 195° |
| 2026-04-29 14:13 | 34.86634 | 136.75121 | 1054 ft | 195 kts | 165° |
| 2026-04-29 14:13 | 34.85325 | 136.75694 | 1023 ft | 197 kts | 161° |
| 2026-04-29 14:13 | 34.84063 | 136.76267 | 1028 ft | 192 kts | 161° |
| 2026-04-29 14:13 | 34.82798 | 136.76828 | 880 ft | 196 kts | 162° |
| 2026-04-29 14:14 | 34.81552 | 136.77444 | 709 ft | 192 kts | 146° |
| 2026-04-29 14:14 | 34.80750 | 136.78673 | 573 ft | 185 kts | 107° |
| 2026-04-29 14:14 | 34.80624 | 136.80162 | 501 ft | 171 kts | 78° |
| 2026-04-29 14:14 | 34.81099 | 136.81383 | 461 ft | 157 kts | 37° |
| 2026-04-29 14:15 | 34.82075 | 136.81615 | 404 ft | 152 kts | 336° |
| 2026-04-29 14:15 | 34.83025 | 136.81202 | 292 ft | 139 kts | 346° |
| 2026-04-29 14:15 | 34.83940 | 136.80991 | 115 ft | 136 kts | 346° |
| 2026-04-29 14:15 | 34.84880 | 136.80764 | 35 ft | 130 kts | 345° |
| 2026-04-29 14:16 | 34.85669 | 136.80578 | 25 ft | 103 kts | 347° |
| 2026-04-29 14:16 | 34.86163 | 136.80463 | 27 ft | 41 kts | 350° |
| 2026-04-29 14:16 | 34.86256 | 136.80442 | 27 ft | 9 kts | 349° |